Time;durP1;ratioP1;P1;durP2;ratioP2;P2;SDS_P1;SDS_P2;PMS_P1;PMS_P2;Temp;Humidity;BMP_temperature;BMP_pressure;BME280_temperature;BME280_humidity;BME280_pressure;Samples;Min_cycle;Max_cycle;Signal;HPM_P1;HPM_P2
2022/08/14 00:00:50;;;;;;;34.00;21.77;;;;;;;17.13;99.28;97112.72;10254632;28;20598;-58
2022/08/14 00:05:50;;;;;;;32.10;21.50;;;;;;;17.09;99.09;97096.22;10255577;28;20074;-58
2022/08/14 00:10:49;;;;;;;32.65;21.70;;;;;;;17.19;99.34;97086.25;10291310;28;20480;-58
2022/08/14 00:15:50;;;;;;;32.22;20.55;;;;;;;17.23;99.39;97077.34;10294889;28;20085;-58
2022/08/14 00:20:50;;;;;;;31.85;20.23;;;;;;;17.07;99.29;97050.84;10274335;28;20089;-58
2022/08/14 00:25:52;;;;;;;33.33;21.70;;;;;;;17.22;99.23;97075.66;10254019;28;20460;-58
2022/08/14 00:30:55;;;;;;;34.85;21.92;;;;;;;17.21;99.36;97068.69;10254387;28;20512;-57
2022/08/14 00:35:54;;;;;;;34.63;21.13;;;;;;;17.18;99.33;97060.94;10293700;28;20110;-58
2022/08/14 00:40:53;;;;;;;33.10;21.02;;;;;;;17.17;99.60;97061.00;10293324;28;20061;-58
2022/08/14 00:45:52;;;;;;;36.30;22.35;;;;;;;17.09;100.00;97058.66;10291617;28;20057;-59
2022/08/14 00:50:53;;;;;;;35.75;20.77;;;;;;;17.01;100.00;97055.50;10291788;28;20061;-58
2022/08/14 00:55:56;;;;;;;34.88;21.85;;;;;;;16.94;100.00;97049.63;10292027;28;20538;-58
2022/08/14 01:00:57;;;;;;;36.58;22.80;;;;;;;16.85;100.00;97042.13;10292544;28;20080;-58
2022/08/14 01:05:57;;;;;;;34.25;22.52;;;;;;;16.75;100.00;97043.31;10292669;28;20072;-58
2022/08/14 01:10:57;;;;;;;35.40;22.05;;;;;;;16.73;100.00;97030.28;10291488;28;20081;-58
2022/08/14 01:15:59;;;;;;;34.10;21.90;;;;;;;16.76;100.00;97030.16;10292430;28;20073;-58
2022/08/14 01:21:02;;;;;;;33.95;21.30;;;;;;;16.75;100.00;97019.75;10290390;28;20084;-58
2022/08/14 01:26:02;;;;;;;34.35;22.45;;;;;;;16.85;100.00;97022.00;10290846;28;20058;-58
2022/08/14 01:31:12;;;;;;;35.42;22.23;;;;;;;16.88;100.00;97019.25;10267852;28;20065;-58
2022/08/14 01:36:12;;;;;;;35.67;22.55;;;;;;;16.95;100.00;97021.66;10277716;28;20083;-58
2022/08/14 01:41:13;;;;;;;35.00;21.23;;;;;;;16.95;100.00;97019.88;10292806;28;20073;-58
2022/08/14 01:46:11;;;;;;;31.25;21.23;;;;;;;16.89;100.00;97018.34;10293249;28;20484;-58
2022/08/14 01:51:12;;;;;;;30.42;20.15;;;;;;;16.77;100.00;97020.53;10294550;28;20041;-58
2022/08/14 01:56:15;;;;;;;30.75;21.45;;;;;;;16.70;100.00;97022.56;10293225;28;20516;-58
2022/08/14 02:01:20;;;;;;;28.85;20.17;;;;;;;16.54;100.00;96997.84;10294140;28;20080;-58
2022/08/14 02:06:20;;;;;;;29.40;18.83;;;;;;;16.40;100.00;97014.91;10293446;28;20065;-58
2022/08/14 02:11:22;;;;;;;31.70;19.98;;;;;;;16.42;100.00;97004.34;10293511;28;20076;-58
2022/08/14 02:16:28;;;;;;;30.77;19.35;;;;;;;16.52;100.00;96992.66;10293866;28;20070;-58
2022/08/14 02:21:31;;;;;;;29.83;19.50;;;;;;;16.54;100.00;96990.00;10292718;28;20092;-58
2022/08/14 02:26:33;;;;;;;27.95;19.60;;;;;;;16.59;100.00;96994.13;10293886;28;20085;-58
2022/08/14 02:31:35;;;;;;;26.67;18.25;;;;;;;16.61;100.00;96981.00;10292258;28;20061;-58
2022/08/14 02:36:35;;;;;;;30.23;19.23;;;;;;;16.62;100.00;96975.66;10265758;28;20082;-57
2022/08/14 02:41:35;;;;;;;31.35;18.98;;;;;;;16.60;100.00;96974.88;10262414;28;20081;-57
2022/08/14 02:46:35;;;;;;;28.90;19.20;;;;;;;16.51;100.00;96975.22;10289949;28;20069;-57
2022/08/14 02:51:34;;;;;;;24.80;17.33;;;;;;;16.44;100.00;96982.47;10296182;28;20440;-57
2022/08/14 02:56:37;;;;;;;27.10;17.95;;;;;;;16.25;100.00;96970.94;10296078;28;20073;-57
2022/08/14 03:01:36;;;;;;;27.00;16.60;;;;;;;16.27;100.00;96987.44;10297067;28;20468;-57
2022/08/14 03:06:37;;;;;;;26.92;17.20;;;;;;;16.34;100.00;96986.31;10295785;28;20089;-57
2022/08/14 03:11:37;;;;;;;25.90;18.58;;;;;;;16.48;100.00;96988.44;10297077;28;20475;-57
2022/08/14 03:16:38;;;;;;;26.02;18.60;;;;;;;16.54;100.00;96977.75;10295122;28;20088;-57
2022/08/14 03:21:38;;;;;;;28.13;19.10;;;;;;;16.65;100.00;96986.06;10296821;28;20084;-57
2022/08/14 03:26:40;;;;;;;27.38;19.25;;;;;;;16.71;100.00;96980.56;10260901;28;20488;-57
2022/08/14 03:31:40;;;;;;;24.70;16.98;;;;;;;16.71;100.00;96982.34;10255859;28;20050;-57
2022/08/14 03:36:39;;;;;;;29.33;18.30;;;;;;;16.77;100.00;96991.72;10292734;28;20077;-57
2022/08/14 03:41:39;;;;;;;25.70;18.25;;;;;;;16.81;100.00;96988.97;10295717;28;20539;-58
2022/08/14 03:46:38;;;;;;;26.55;18.60;;;;;;;16.85;100.00;96994.94;10293896;28;20081;-58
2022/08/14 03:51:37;;;;;;;28.50;17.85;;;;;;;16.93;100.00;96998.13;10296246;28;20065;-58
2022/08/14 03:56:36;;;;;;;27.48;18.52;;;;;;;16.86;100.00;97002.75;10294360;28;20808;-58
2022/08/14 04:01:35;;;;;;;26.70;18.00;;;;;;;16.73;100.00;96998.84;10294239;28;20045;-58
2022/08/14 04:06:36;;;;;;;29.23;18.20;;;;;;;16.65;100.00;97001.78;10295077;28;20092;-58
2022/08/14 04:11:36;;;;;;;28.83;17.60;;;;;;;16.61;100.00;97000.19;10269865;28;20070;-58
2022/08/14 04:16:35;;;;;;;27.13;18.70;;;;;;;16.64;100.00;97009.69;10286058;28;20081;-58
2022/08/14 04:21:34;;;;;;;26.48;18.08;;;;;;;16.75;100.00;96999.66;10284919;28;20032;-58
2022/08/14 04:26:33;;;;;;;;;;;;;;;16.83;100.00;97000.25;10253989;28;20038;-58
2022/08/14 04:31:33;;;;;;;29.60;19.23;;;;;;;16.82;100.00;97003.78;10252777;28;20358;-58
2022/08/14 04:43:34;;;;;;;28.65;19.02;;;;;;;16.92;100.00;97004.28;10288718;28;20096;-58
2022/08/14 04:52:26;;;;;;;30.23;18.17;;;;;;;16.91;100.00;96986.84;10296751;28;20526;-58
2022/08/14 04:57:25;;;;;;;26.92;18.77;;;;;;;16.95;100.00;96995.44;10288957;28;20527;-58
2022/08/14 05:02:26;;;;;;;28.90;18.60;;;;;;;16.95;100.00;96993.66;10255621;28;20053;-58
2022/08/14 05:07:25;;;;;;;26.60;18.98;;;;;;;17.00;100.00;96996.13;10255784;28;20515;-58
2022/08/14 05:12:24;;;;;;;27.98;19.95;;;;;;;17.08;100.00;96992.28;10252733;28;20065;-58
2022/08/14 05:17:26;;;;;;;28.15;19.40;;;;;;;17.20;100.00;96993.56;10253621;28;20065;-58
2022/08/14 05:22:25;;;;;;;29.83;19.85;;;;;;;17.31;100.00;97001.88;10267821;28;20069;-58
2022/08/14 05:27:24;;;;;;;28.92;19.00;;;;;;;17.30;99.60;96994.91;10294142;28;20061;-58
2022/08/14 05:32:25;;;;;;;27.70;20.15;;;;;;;17.21;99.71;96997.88;10293314;28;20032;-58
2022/08/14 05:37:26;;;;;;;30.08;20.95;;;;;;;17.19;100.00;96999.75;10292129;28;20073;-58
2022/08/14 05:42:26;;;;;;;33.40;23.88;;;;;;;17.20;100.00;97004.06;10290676;28;20111;-58
2022/08/14 05:47:25;;;;;;;35.05;22.23;;;;;;;17.19;100.00;97019.84;10289796;28;20092;-58
2022/08/14 05:52:23;;;;;;;34.70;23.85;;;;;;;17.19;100.00;97019.84;10289638;28;20138;-60
2022/08/14 05:57:23;;;;;;;31.48;23.20;;;;;;;17.28;100.00;97017.69;10287921;28;20160;-58
2022/08/14 06:02:22;;;;;;;33.78;26.33;;;;;;;17.30;100.00;97004.53;10289816;28;20069;-58
2022/08/14 06:07:21;;;;;;;33.97;24.38;;;;;;;17.51;100.00;97010.69;10272853;28;20120;-58
2022/08/14 06:12:20;;;;;;;33.58;27.42;;;;;;;17.74;100.00;97023.72;10251086;28;20437;-59
2022/08/14 06:17:19;;;;;;;35.50;26.73;;;;;;;17.86;100.00;97013.66;10250291;28;20058;-59
2022/08/14 06:22:18;;;;;;;33.72;26.50;;;;;;;18.09;99.42;97015.31;10275633;28;20112;-59
2022/08/14 06:27:18;;;;;;;34.83;25.73;;;;;;;18.21;98.31;97016.56;10272099;28;20065;-59
2022/08/14 06:32:17;;;;;;;35.03;26.02;;;;;;;18.15;97.57;97022.91;10259555;28;20073;-59
2022/08/14 06:37:17;;;;;;;31.73;23.83;;;;;;;18.18;97.32;97023.66;10296904;28;20077;-59
2022/08/14 06:42:16;;;;;;;34.30;24.48;;;;;;;17.91;97.36;97033.53;10297183;28;20077;-59
2022/08/14 06:47:15;;;;;;;36.70;24.73;;;;;;;17.84;97.97;97041.75;10295794;28;20029;-60
2022/08/14 06:52:14;;;;;;;33.28;23.13;;;;;;;17.94;97.99;97046.56;10296824;28;20413;-59
2022/08/14 06:57:13;;;;;;;26.75;21.33;;;;;;;17.88;97.92;97043.34;10286615;28;20092;-58
2022/08/14 07:07:38;;;;;;;26.33;19.77;;;;;;;17.79;98.59;97041.09;10257519;28;20082;-58
2022/08/14 07:12:37;;;;;;;28.98;19.38;;;;;;;18.11;98.39;97045.84;10296190;28;20479;-59
2022/08/14 07:17:43;;;;;;;28.13;21.20;;;;;;;18.27;96.50;97046.03;10295651;28;20077;-59
2022/08/14 07:22:44;;;;;;;27.88;22.10;;;;;;;18.38;95.83;97050.81;10290560;28;20493;-58
2022/08/14 07:27:43;;;;;;;27.30;21.50;;;;;;;18.58;95.68;97050.78;10294250;28;20089;-58
2022/08/14 07:32:42;;;;;;;22.52;18.33;;;;;;;18.75;94.44;97052.69;10296083;28;20014;-58
2022/08/14 07:37:41;;;;;;;23.75;18.73;;;;;;;18.77;94.35;97042.13;10281891;28;20081;-58
2022/08/14 07:42:41;;;;;;;20.77;16.55;;;;;;;19.01;94.09;97050.66;10295664;28;20123;-58
2022/08/14 07:47:41;;;;;;;20.83;16.95;;;;;;;19.16;93.75;97041.22;10295785;28;20080;-59
2022/08/14 07:52:47;;;;;;;22.08;17.35;;;;;;;19.33;93.32;97059.69;10294424;28;20096;-60
2022/08/14 07:57:46;;;;;;;24.23;17.73;;;;;;;19.52;92.87;97080.69;10282655;28;20480;-58
2022/08/14 08:02:48;;;;;;;20.45;16.08;;;;;;;19.60;92.28;97083.00;10253596;28;20070;-58
2022/08/14 08:07:47;;;;;;;20.42;16.50;;;;;;;19.61;91.53;97075.03;10254106;28;20077;-58
2022/08/14 08:12:47;;;;;;;22.33;17.50;;;;;;;19.62;91.30;97081.13;10254460;28;20134;-58
2022/08/14 08:17:46;;;;;;;23.23;18.42;;;;;;;19.62;91.20;97086.41;10254858;28;20084;-57
2022/08/14 08:22:50;;;;;;;25.65;19.15;;;;;;;19.61;91.36;97089.97;10281897;28;20068;-59
2022/08/14 08:28:01;;;;;;;26.33;19.85;;;;;;;19.56;91.28;97061.25;10255645;28;20393;-57
2022/08/14 08:33:01;;;;;;;23.33;18.90;;;;;;;19.41;90.16;97047.00;10281917;28;20077;-58
2022/08/14 08:38:09;;;;;;;26.63;19.40;;;;;;;19.18;90.62;97055.13;10291454;28;20107;-59
2022/08/14 08:43:32;;;;;;;39.83;27.35;;;;;;;18.95;92.13;97036.03;10291789;28;20077;-59
2022/08/14 08:48:51;;;;;;;44.13;29.27;;;;;;;18.82;93.18;97033.09;10285947;28;20092;-58
2022/08/14 08:54:04;;;;;;;47.88;32.25;;;;;;;18.72;93.99;97030.97;10254097;28;20073;-58
2022/08/14 08:59:16;;;;;;;39.53;28.33;;;;;;;18.73;94.65;97030.03;10273800;28;20503;-58
2022/08/14 09:04:15;;;;;;;30.33;22.20;;;;;;;18.77;95.38;97029.81;10265639;28;20117;-58
2022/08/14 09:09:24;;;;;;;30.40;22.13;;;;;;;18.81;96.06;97028.78;10256430;28;20030;-58
2022/08/14 09:14:28;;;;;;;;;;;;;;;18.91;96.76;97016.06;10252783;28;20092;-57
2022/08/14 09:19:27;;;;;;;33.78;23.38;;;;;;;19.19;97.42;97026.13;10264999;28;20239;-58
2022/08/14 09:24:26;;;;;;;25.45;17.83;;;;;;;19.28;94.62;97022.22;10290771;28;20076;-58
2022/08/14 09:29:25;;;;;;;25.10;18.73;;;;;;;19.31;94.87;97016.81;10291803;28;20076;-59
2022/08/14 09:34:42;;;;;;;28.92;19.75;;;;;;;19.55;95.26;97021.81;10272284;28;20046;-57
2022/08/14 09:40:03;;;;;;;25.38;19.38;;;;;;;19.76;94.95;97026.03;10291628;28;20065;-60
2022/08/14 09:45:18;;;;;;;20.58;16.75;;;;;;;20.03;94.21;97033.50;10293748;28;20077;-58
2022/08/14 09:50:22;;;;;;;21.30;17.10;;;;;;;20.43;93.23;97037.59;10294278;28;20472;-58
2022/08/14 09:55:23;;;;;;;18.98;15.32;;;;;;;20.88;88.27;97036.09;10293069;28;20074;-58
2022/08/14 10:00:42;;;;;;;18.35;14.80;;;;;;;21.35;86.97;97037.09;10274388;28;20500;-58
2022/08/14 10:05:41;;;;;;;17.65;15.52;;;;;;;21.83;87.31;97027.31;10256394;28;20082;-58
2022/08/14 10:10:41;;;;;;;15.68;13.35;;;;;;;22.26;79.30;97008.97;10253496;28;20030;-58
2022/08/14 10:15:45;;;;;;;21.08;17.83;;;;;;;22.43;77.36;97004.44;10269171;28;20066;-58
2022/08/14 10:20:59;;;;;;;19.73;13.95;;;;;;;22.53;78.77;96998.50;10293813;28;20045;-58
2022/08/14 10:26:05;;;;;;;15.25;12.65;;;;;;;23.02;77.07;96984.03;10292636;28;20082;-59
2022/08/14 10:31:18;;;;;;;15.25;12.48;;;;;;;23.21;75.00;96981.94;10293191;28;20512;-59
2022/08/14 10:36:32;;;;;;;14.85;13.02;;;;;;;23.33;75.16;96982.09;10293126;28;20046;-60
2022/08/14 10:41:39;;;;;;;16.73;12.85;;;;;;;22.95;73.10;96975.66;10290636;28;20483;-59
2022/08/14 10:46:57;;;;;;;14.90;13.40;;;;;;;22.71;72.82;96970.06;10290410;28;21162;-58
2022/08/14 10:52:07;;;;;;;14.15;12.60;;;;;;;22.68;70.83;96972.91;10288227;28;20088;-58
2022/08/14 10:57:26;;;;;;;16.30;14.50;;;;;;;22.72;70.93;96969.13;10290113;28;20480;-59
2022/08/14 11:02:33;;;;;;;;;;;;;;;23.01;68.72;96964.66;10285891;28;20081;-59
2022/08/14 11:07:37;;;;;;;13.57;11.32;;;;;;;23.09;66.28;96966.84;10290585;28;19952;-58
2022/08/14 11:12:49;;;;;;;13.82;11.85;;;;;;;23.25;67.93;96963.19;10293797;28;20076;-58
2022/08/14 11:17:49;;;;;;;13.02;11.65;;;;;;;23.55;66.38;96950.63;10297214;28;20077;-59
2022/08/14 11:22:51;;;;;;;14.32;12.82;;;;;;;23.66;66.19;96955.22;10282559;28;20569;-59
2022/08/14 11:27:53;;;;;;;14.07;12.35;;;;;;;24.08;67.39;96955.06;10256262;28;20074;-58
2022/08/14 11:32:53;;;;;;;13.55;12.15;;;;;;;24.69;65.00;96950.81;10257338;28;20085;-58
2022/08/14 11:38:01;;;;;;;13.30;11.88;;;;;;;24.46;60.44;96950.63;10290496;28;20483;-59
2022/08/14 11:43:02;;;;;;;13.83;12.43;;;;;;;24.27;61.54;96950.22;10296428;28;20062;-58
2022/08/14 11:48:22;;;;;;;14.40;12.00;;;;;;;25.06;63.19;96933.13;10294665;28;20077;-60
2022/08/14 11:53:30;;;;;;;26.83;24.00;;;;;;;25.29;58.36;96943.88;10295991;28;20511;-59
2022/08/14 11:58:35;;;;;;;13.75;12.20;;;;;;;25.07;57.91;96932.16;10282024;28;20139;-59
2022/08/14 12:03:41;;;;;;;14.70;12.27;;;;;;;24.65;58.25;96928.97;10293557;28;20274;-59
2022/08/14 12:08:41;;;;;;;13.55;12.15;;;;;;;24.41;59.56;96944.81;10293589;28;20061;-59
2022/08/14 12:13:42;;;;;;;13.25;11.90;;;;;;;24.20;61.82;96943.66;10258121;28;20066;-59
2022/08/14 12:18:44;;;;;;;11.02;9.85;;;;;;;23.74;64.00;96946.75;10255298;28;20070;-59
2022/08/14 12:23:46;;;;;;;9.93;8.93;;;;;;;23.75;63.96;96944.00;10286128;28;20081;-59
2022/08/14 12:28:50;;;;;;;9.63;7.97;;;;;;;23.64;64.73;96949.16;10293938;28;20057;-59
2022/08/14 12:33:58;;;;;;;9.98;7.55;;;;;;;23.21;65.25;96941.38;10276774;28;20689;-59
2022/08/14 12:38:59;;;;;;;9.70;7.65;;;;;;;22.89;66.32;96930.22;10293189;28;20510;-58
2022/08/14 12:44:02;;;;;;;9.43;8.10;;;;;;;22.77;66.33;96918.63;10293724;28;20459;-58
2022/08/14 12:49:12;;;;;;;9.60;7.95;;;;;;;22.85;66.04;96915.47;10256128;28;20077;-58
2022/08/14 12:54:19;;;;;;;9.18;8.18;;;;;;;23.30;65.00;96914.28;10257705;28;20070;-58
2022/08/14 12:59:29;;;;;;;10.07;7.78;;;;;;;23.49;62.80;96905.16;10293875;28;20085;-58
2022/08/14 13:04:30;;;;;;;8.35;7.45;;;;;;;23.80;61.66;96909.25;10279131;28;20069;-58
2022/08/14 13:09:29;;;;;;;9.07;7.55;;;;;;;23.80;58.96;96899.50;10276356;28;20069;-58
2022/08/14 13:14:32;;;;;;;8.88;7.20;;;;;;;23.53;60.14;96909.28;10275754;28;20022;-58
2022/08/14 13:19:32;;;;;;;7.75;6.60;;;;;;;23.74;59.60;96909.66;10279333;28;20081;-58
2022/08/14 13:24:31;;;;;;;8.88;7.07;;;;;;;23.69;59.93;96894.06;10290079;28;20080;-58
2022/08/14 13:29:37;;;;;;;7.35;6.03;;;;;;;23.70;60.13;96908.16;10290670;28;20089;-58
2022/08/14 13:34:37;;;;;;;8.57;5.88;;;;;;;23.92;59.94;96905.75;10283991;28;20523;-57
2022/08/14 13:39:36;;;;;;;8.30;4.80;;;;;;;23.94;59.23;96916.25;10280952;28;20073;-58
2022/08/14 13:44:37;;;;;;;7.50;5.38;;;;;;;23.56;60.13;96907.31;10288873;28;20508;-59
2022/08/14 13:49:37;;;;;;;5.15;4.30;;;;;;;23.54;60.58;96913.66;10276050;28;20077;-58
2022/08/14 13:54:40;;;;;;;5.57;4.70;;;;;;;23.21;61.19;96913.09;10270464;28;20066;-58
2022/08/14 13:59:45;;;;;;;4.63;3.92;;;;;;;23.08;62.27;96912.19;10282647;28;20076;-59
2022/08/14 14:04:46;;;;;;;4.63;3.40;;;;;;;22.97;61.89;96904.09;10290099;28;20113;-59
2022/08/14 14:09:47;;;;;;;4.90;3.95;;;;;;;23.02;62.94;96900.22;10258325;28;20824;-58
2022/08/14 14:14:46;;;;;;;5.13;3.88;;;;;;;23.02;63.04;96917.88;10248719;28;20070;-58
2022/08/14 14:19:45;;;;;;;3.50;3.20;;;;;;;22.66;63.99;96915.75;10279094;28;20076;-59
2022/08/14 14:24:45;;;;;;;4.80;4.20;;;;;;;22.39;66.45;96904.19;10289246;28;20042;-59
2022/08/14 14:29:48;;;;;;;4.05;3.65;;;;;;;22.02;69.44;96926.72;10273367;28;20069;-59
2022/08/14 14:34:52;;;;;;;5.63;4.45;;;;;;;21.56;71.04;96929.44;10284922;28;20129;-59
2022/08/14 14:39:54;;;;;;;6.68;4.70;;;;;;;21.41;74.30;96939.09;10249039;28;20531;-58
2022/08/14 14:45:13;;;;;;;7.22;5.47;;;;;;;21.12;76.22;96940.72;10287393;28;20551;-58
2022/08/14 14:50:13;;;;;;;6.45;5.18;;;;;;;20.97;78.36;96937.16;10265632;28;20080;-58
2022/08/14 14:55:12;;;;;;;8.73;6.15;;;;;;;20.86;78.42;96934.25;10255653;28;20061;-58
2022/08/14 15:00:15;;;;;;;7.38;5.40;;;;;;;20.87;79.67;96938.63;10272697;28;20077;-59
2022/08/14 15:05:16;;;;;;;7.90;5.50;;;;;;;20.87;81.00;96930.69;10293772;28;20081;-58
2022/08/14 15:10:18;;;;;;;7.38;5.80;;;;;;;20.92;81.87;96933.94;10294526;28;20073;-58
2022/08/14 15:15:17;;;;;;;8.32;6.07;;;;;;;20.97;83.19;96928.41;10295856;28;20057;-59
2022/08/14 15:20:16;;;;;;;7.32;5.75;;;;;;;21.03;83.18;96920.13;10295280;28;20065;-59
2022/08/14 15:25:15;;;;;;;9.68;5.47;;;;;;;21.11;83.31;96913.47;10294227;28;20030;-57
2022/08/14 15:30:16;;;;;;;7.30;5.55;;;;;;;21.18;83.38;96911.34;10294842;28;20073;-58
2022/08/14 15:35:15;;;;;;;6.47;5.40;;;;;;;21.23;82.80;96908.47;10271835;28;20120;-57
2022/08/14 15:40:17;;;;;;;7.28;5.80;;;;;;;21.20;82.43;96911.28;10293133;28;20041;-58
2022/08/14 15:45:16;;;;;;;6.70;5.25;;;;;;;21.13;83.42;96914.25;10296423;28;20078;-58
2022/08/14 15:50:15;;;;;;;7.82;5.28;;;;;;;21.11;83.91;96904.72;10263639;28;20096;-58
2022/08/14 15:55:14;;;;;;;8.20;5.60;;;;;;;21.05;84.46;96907.69;10288826;28;20088;-58
2022/08/14 16:05:32;;;;;;;9.38;5.75;;;;;;;20.87;85.51;96914.88;10296256;28;20068;-58
2022/08/14 16:10:31;;;;;;;9.32;6.15;;;;;;;20.74;85.91;96921.75;10293966;28;20090;-57
2022/08/14 16:15:30;;;;;;;7.75;5.53;;;;;;;20.59;86.55;96895.31;10295241;28;20476;-58
2022/08/14 16:20:33;;;;;;;6.57;5.05;;;;;;;20.59;87.05;96905.84;10292158;28;20781;-58
2022/08/14 16:25:33;;;;;;;6.60;5.47;;;;;;;20.54;86.62;96902.63;10255900;28;20082;-58
2022/08/14 16:30:32;;;;;;;7.63;5.50;;;;;;;20.53;87.23;96892.16;10257721;28;20093;-58
2022/08/14 16:35:37;;;;;;;6.75;5.32;;;;;;;20.58;87.25;96896.22;10275689;28;20125;-58
2022/08/14 16:40:36;;;;;;;6.95;5.00;;;;;;;20.59;87.58;96900.59;10253731;28;20485;-57
2022/08/14 16:45:40;;;;;;;6.68;5.40;;;;;;;20.55;87.21;96903.47;10279281;28;20081;-58
2022/08/14 16:50:39;;;;;;;6.93;5.65;;;;;;;20.40;86.65;96910.41;10292582;28;20077;-58
2022/08/14 16:55:38;;;;;;;8.10;5.63;;;;;;;20.06;86.98;96913.03;10270261;28;20089;-58
2022/08/14 17:00:38;;;;;;;8.77;6.47;;;;;;;19.50;89.65;96915.94;10251093;28;20049;-58
2022/08/14 17:05:40;;;;;;;9.45;6.40;;;;;;;19.37;90.65;96913.03;10268738;28;20077;-59
2022/08/14 17:10:42;;;;;;;9.50;6.68;;;;;;;19.32;91.26;96913.31;10290548;28;20084;-58
2022/08/14 17:15:41;;;;;;;9.45;6.72;;;;;;;19.20;91.83;96911.25;10288703;28;20104;-58
2022/08/14 17:20:43;;;;;;;11.63;7.88;;;;;;;19.12;92.21;96914.25;10282750;28;20085;-58
2022/08/14 17:25:41;;;;;;;12.23;8.23;;;;;;;19.01;92.57;96922.66;10266313;28;20190;-58
2022/08/14 17:31:07;;;;;;;11.85;8.18;;;;;;;18.96;92.82;96929.91;10255377;28;20141;-58
2022/08/14 17:36:13;;;;;;;13.88;8.60;;;;;;;18.84;93.54;96932.28;10269943;28;20143;-59
2022/08/14 17:41:23;;;;;;;12.55;9.32;;;;;;;18.72;93.90;96925.84;10259094;28;20539;-59
2022/08/14 17:46:38;;;;;;;12.45;9.07;;;;;;;18.66;94.12;96937.44;10289929;28;20078;-58
2022/08/14 17:52:04;;;;;;;17.40;8.32;;;;;;;18.56;94.49;96938.81;10270337;28;20781;-58
2022/08/14 17:57:07;;;;;;;15.18;9.38;;;;;;;18.50;94.58;96941.69;10260712;28;20483;-59
2022/08/14 18:02:08;;;;;;;12.80;8.43;;;;;;;18.42;94.53;96939.44;10270676;28;20077;-57
2022/08/14 18:07:10;;;;;;;12.35;8.35;;;;;;;18.38;94.75;96937.84;10256719;28;20165;-57
2022/08/14 18:12:11;;;;;;;12.43;9.13;;;;;;;18.30;94.98;96946.09;10271317;28;20061;-57
2022/08/14 18:17:10;;;;;;;12.82;9.07;;;;;;;18.22;95.33;96955.22;10268489;28;20527;-57
2022/08/14 18:22:10;;;;;;;14.95;10.20;;;;;;;18.10;95.82;96949.59;10265548;28;20066;-59
2022/08/14 18:27:16;;;;;;;15.48;9.88;;;;;;;18.03;95.82;96944.69;10276737;28;20081;-57
2022/08/14 18:32:40;;;;;;;16.88;9.70;;;;;;;17.94;96.22;96923.19;10279807;28;20066;-59
2022/08/14 18:37:41;;;;;;;15.43;10.32;;;;;;;17.89;96.61;96934.78;10276018;28;20092;-57
2022/08/14 18:42:49;;;;;;;13.45;9.85;;;;;;;17.86;96.83;96934.94;10292093;28;20069;-57
2022/08/14 18:48:07;;;;;;;16.02;10.18;;;;;;;17.79;97.08;96946.59;10276759;28;20113;-57
2022/08/14 18:53:08;;;;;;;15.30;9.75;;;;;;;17.76;97.43;96956.31;10257399;28;20472;-57
2022/08/14 18:58:07;;;;;;;14.38;9.88;;;;;;;17.73;97.56;96959.03;10262704;28;20079;-57
2022/08/14 19:03:29;;;;;;;23.90;10.27;;;;;;;17.70;98.03;96972.28;10297099;28;20029;-59
2022/08/14 19:08:38;;;;;;;12.45;9.40;;;;;;;17.66;97.97;96962.84;10286142;28;20092;-57
2022/08/14 19:13:39;;;;;;;15.25;9.05;;;;;;;17.68;98.01;96974.13;10273640;28;20073;-61
2022/08/14 19:19:02;;;;;;;15.20;9.48;;;;;;;17.69;97.88;96986.31;10270733;28;20072;-59
2022/08/14 19:24:07;;;;;;;18.40;10.88;;;;;;;17.71;98.50;96976.63;10291268;28;20069;-58
2022/08/14 19:29:25;;;;;;;16.42;11.23;;;;;;;17.70;99.13;96967.03;10274460;28;20113;-58
2022/08/14 19:34:42;;;;;;;14.02;10.40;;;;;;;17.74;99.14;96986.13;10292871;28;20523;-58
2022/08/14 19:39:50;;;;;;;14.18;9.40;;;;;;;17.74;99.25;96986.13;10292375;28;20100;-58
2022/08/14 19:44:50;;;;;;;13.32;8.50;;;;;;;17.76;99.21;96987.81;10287007;28;20129;-59
2022/08/14 19:49:51;;;;;;;14.38;8.70;;;;;;;17.72;99.01;96978.31;10268910;28;20065;-58
2022/08/14 19:54:53;;;;;;;15.00;8.30;;;;;;;17.73;99.10;96976.53;10266167;28;20519;-58
2022/08/14 20:00:14;;;;;;;12.57;8.32;;;;;;;17.75;98.98;96985.19;10262143;28;20072;-58
2022/08/14 20:05:15;;;;;;;10.80;7.68;;;;;;;17.70;98.83;96990.66;10255318;28;20073;-58
2022/08/14 20:10:26;;;;;;;12.15;8.15;;;;;;;17.65;98.75;97000.47;10259307;28;20133;-58
2022/08/14 20:15:28;;;;;;;12.65;7.80;;;;;;;17.65;98.84;97012.75;10263931;28;20536;-57
2022/08/14 20:20:27;;;;;;;11.25;7.38;;;;;;;17.63;98.66;97010.19;10279716;28;20073;-61
2022/08/14 20:25:26;;;;;;;14.18;7.60;;;;;;;17.61;98.64;97003.28;10264783;28;20030;-58
2022/08/14 20:30:25;;;;;;;11.57;7.43;;;;;;;17.62;98.78;97005.03;10269457;28;20539;-59
2022/08/14 20:35:40;;;;;;;16.13;8.00;;;;;;;17.62;98.72;97003.25;10266046;28;20082;-59
2022/08/14 20:40:42;;;;;;;14.23;8.30;;;;;;;17.60;98.58;97006.84;10266173;28;20077;-59
2022/08/14 20:45:47;;;;;;;13.88;8.57;;;;;;;17.58;98.75;96999.03;10275023;28;20137;-59
2022/08/14 20:50:46;;;;;;;13.48;8.70;;;;;;;17.55;98.73;96997.38;10265581;28;20077;-59
2022/08/14 20:55:45;;;;;;;14.63;9.00;;;;;;;17.54;99.14;96994.81;10270450;28;20053;-59
2022/08/14 21:00:44;;;;;;;15.80;10.15;;;;;;;17.53;99.04;96990.50;10277225;28;20584;-59
2022/08/14 21:05:43;;;;;;;14.40;9.68;;;;;;;17.50;99.22;96988.00;10268563;28;20443;-59
2022/08/14 21:10:44;;;;;;;12.95;8.57;;;;;;;17.42;99.55;96988.31;10273782;28;20026;-59
2022/08/14 21:15:44;;;;;;;13.60;9.75;;;;;;;17.31;99.88;96980.88;10264610;28;21240;-59
2022/08/14 21:20:44;;;;;;;18.25;9.93;;;;;;;17.28;100.00;96986.25;10275240;28;20493;-58
2022/08/14 21:25:43;;;;;;;16.02;10.43;;;;;;;17.32;100.00;96989.59;10270089;28;20116;-58
2022/08/14 21:30:42;;;;;;;18.98;11.63;;;;;;;17.27;100.00;96970.59;10269560;28;20045;-58
2022/08/14 21:35:44;;;;;;;17.73;11.32;;;;;;;17.18;100.00;96957.84;10269681;28;20034;-58
2022/08/14 21:40:47;;;;;;;16.88;10.25;;;;;;;17.21;100.00;96968.19;10263324;28;20180;-58
2022/08/14 21:45:49;;;;;;;15.65;9.45;;;;;;;17.20;100.00;96961.25;10259647;28;20112;-58
2022/08/14 21:50:52;;;;;;;19.45;9.98;;;;;;;17.20;100.00;96954.25;10277588;28;20496;-58
2022/08/14 21:55:52;;;;;;;14.18;9.43;;;;;;;17.19;100.00;96949.94;10248696;28;20085;-58
2022/08/14 22:00:51;;;;;;;17.10;9.50;;;;;;;17.18;100.00;96935.09;10277748;28;20092;-58
2022/08/14 22:05:51;;;;;;;18.08;11.52;;;;;;;17.18;100.00;96926.38;10279775;28;20030;-58
2022/08/14 22:10:50;;;;;;;19.88;12.75;;;;;;;17.14;100.00;96917.78;10255189;28;20084;-58
2022/08/14 22:15:50;;;;;;;22.27;13.15;;;;;;;17.09;100.00;96919.75;10265227;28;20520;-58
2022/08/14 22:20:51;;;;;;;23.00;13.77;;;;;;;16.92;100.00;96921.25;10260642;28;20536;-58
2022/08/14 22:25:51;;;;;;;26.02;14.52;;;;;;;16.83;100.00;96926.88;10286927;28;20301;-58
2022/08/14 22:30:50;;;;;;;25.65;14.63;;;;;;;16.89;100.00;96937.13;10287283;28;20117;-58
2022/08/14 22:35:49;;;;;;;22.73;13.40;;;;;;;16.65;100.00;96941.53;10263337;28;20180;-58
2022/08/14 22:40:50;;;;;;;22.05;13.57;;;;;;;16.52;100.00;96935.88;10276272;28;20043;-58
2022/08/14 22:45:49;;;;;;;23.77;13.15;;;;;;;16.56;100.00;96944.50;10271905;28;20074;-58
2022/08/14 22:50:48;;;;;;;21.02;12.63;;;;;;;16.59;100.00;96933.88;10259645;28;20034;-58
2022/08/14 22:55:47;;;;;;;;;;;;;;;16.63;100.00;96948.59;10266483;28;20030;-58
2022/08/14 23:00:46;;;;;;;16.50;9.27;;;;;;;16.57;100.00;96947.97;10257530;28;19914;-58
2022/08/14 23:05:45;;;;;;;15.68;9.90;;;;;;;16.48;100.00;96939.53;10250376;28;20085;-58
2022/08/14 23:10:44;;;;;;;14.75;9.55;;;;;;;16.50;100.00;96935.09;10296029;28;20483;-58
2022/08/14 23:15:46;;;;;;;15.68;10.63;;;;;;;16.51;100.00;96936.81;10279537;28;20478;-58
2022/08/14 23:20:46;;;;;;;18.45;10.63;;;;;;;16.48;100.00;96936.91;10272196;28;20124;-58